Time;durP1;ratioP1;P1;durP2;ratioP2;P2;SDS_P1;SDS_P2;PMS_P1;PMS_P2;Temp;Humidity;BMP_temperature;BMP_pressure;BME280_temperature;BME280_humidity;BME280_pressure;Samples;Min_cycle;Max_cycle;Signal;HPM_P1;HPM_P2
2023/04/01 00:00:18;;;;;;;6.68;4.60;;;10.50;99.90;;;;;;5054926;28;20028;-71
2023/04/01 00:02:43;;;;;;;8.18;4.10;;;10.60;99.90;;;;;;5055251;28;20048;-72
2023/04/01 00:05:10;;;;;;;7.03;3.80;;;10.50;99.90;;;;;;5038365;28;20047;-71
2023/04/01 00:07:37;;;;;;;5.93;4.00;;;10.50;99.90;;;;;;5054867;28;20044;-72
2023/04/01 00:10:04;;;;;;;7.78;4.20;;;10.50;99.90;;;;;;5054948;28;20037;-71
2023/04/01 00:12:30;;;;;;;7.10;4.60;;;10.50;99.90;;;;;;5038167;28;20540;-71
2023/04/01 00:14:55;;;;;;;7.47;4.40;;;10.50;99.90;;;;;;5054836;28;20102;-71
2023/04/01 00:17:21;;;;;;;4.65;4.22;;;10.50;99.90;;;;;;5054728;28;20028;-71
2023/04/01 00:19:47;;;;;;;6.20;4.10;;;10.50;99.90;;;;;;5054858;28;20033;-72
2023/04/01 00:22:13;;;;;;;5.05;4.10;;;10.50;99.90;;;;;;5054813;28;20449;-72
2023/04/01 00:24:39;;;;;;;5.85;4.43;;;10.50;99.90;;;;;;5054766;28;20132;-72
2023/04/01 00:27:04;;;;;;;6.15;4.30;;;10.50;99.90;;;;;;5054769;28;20041;-72
2023/04/01 00:29:31;;;;;;;7.10;3.95;;;10.50;99.90;;;;;;5054941;28;20039;-72
2023/04/01 00:31:57;;;;;;;6.68;4.20;;;10.50;99.90;;;;;;5054662;28;20076;-72
2023/04/01 00:34:23;;;;;;;6.43;4.25;;;10.40;99.90;;;;;;5054706;28;20040;-72
2023/04/01 00:36:50;;;;;;;5.95;4.18;;;10.40;99.90;;;;;;5056192;28;20094;-72
2023/04/01 00:39:16;;;;;;;5.13;4.30;;;10.50;99.90;;;;;;5058532;28;20047;-72
2023/04/01 00:41:42;;;;;;;5.68;4.05;;;10.40;99.90;;;;;;5058758;28;20150;-72
2023/04/01 00:44:23;;;;;;;5.13;3.88;;;10.40;99.90;;;;;;5042144;28;20543;-72
2023/04/01 00:46:49;;;;;;;5.80;4.10;;;10.50;99.90;;;;;;5058550;28;20052;-72
2023/04/01 00:49:17;;;;;;;4.30;3.50;;;10.40;99.90;;;;;;5041992;28;20040;-72
2023/04/01 00:51:46;;;;;;;7.70;4.55;;;10.40;99.90;;;;;;5058262;28;20105;-72
2023/04/01 00:54:13;;;;;;;5.15;3.70;;;10.40;99.90;;;;;;5058232;28;20032;-72
2023/04/01 00:56:49;;;;;;;5.65;3.50;;;10.40;99.90;;;;;;5058426;28;20157;-72
2023/04/01 00:59:23;;;;;;;5.07;3.90;;;10.40;99.90;;;;;;5058153;28;20381;-72
2023/04/01 01:01:49;;;;;;;5.15;3.40;;;10.40;99.90;;;;;;5058157;28;20044;-72
2023/04/01 01:04:28;;;;;;;6.35;2.95;;;10.40;99.90;;;;;;5058280;28;20044;-72
2023/04/01 01:07:03;;;;;;;3.65;2.90;;;10.40;99.90;;;;;;5057870;28;20052;-72
2023/04/01 01:09:42;;;;;;;4.32;2.83;;;10.40;99.90;;;;;;5041618;28;20083;-72
2023/04/01 01:12:19;;;;;;;5.90;2.72;;;10.40;99.90;;;;;;5058171;28;20052;-72
2023/04/01 01:15:23;;;;;;;4.63;2.60;;;10.40;99.90;;;;;;5058129;28;20127;-71
2023/04/01 01:18:27;;;;;;;3.83;2.20;;;10.40;99.90;;;;;;5014406;28;20182;-71
2023/04/01 01:21:20;;;;;;;3.40;1.60;;;10.30;99.90;;;;;;5041146;28;20094;-71
2023/04/01 01:23:49;;;;;;;;;;;10.30;99.90;;;;;;5041805;28;20488;-71
2023/04/01 01:26:34;;;;;;;3.03;1.30;;;10.20;99.90;;;;;;5057633;28;19970;-71
2023/04/01 01:29:37;;;;;;;1.33;0.80;;;10.20;99.90;;;;;;5057574;28;20071;-72
2023/04/01 01:32:24;;;;;;;1.80;0.80;;;10.20;99.90;;;;;;5057463;28;20041;-72
2023/04/01 01:35:08;;;;;;;0.70;0.50;;;10.10;99.90;;;;;;5057749;28;20037;-72
2023/04/01 01:37:35;;;;;;;0.93;0.50;;;10.20;99.90;;;;;;5057363;28;20040;-72
2023/04/01 01:40:05;;;;;;;1.42;0.60;;;10.20;99.90;;;;;;5057657;28;20123;-72
2023/04/01 01:42:33;;;;;;;1.40;0.50;;;10.20;99.90;;;;;;5057618;28;20491;-72
2023/04/01 01:45:02;;;;;;;4.15;0.60;;;10.10;99.90;;;;;;5040923;28;20052;-72
2023/04/01 01:47:29;;;;;;;1.05;0.63;;;10.20;99.90;;;;;;5056974;28;20400;-72
2023/04/01 01:49:55;;;;;;;2.40;0.70;;;10.20;99.90;;;;;;5057190;28;20040;-71
2023/04/01 01:52:26;;;;;;;2.50;1.00;;;10.10;99.90;;;;;;5057058;28;20037;-71
2023/04/01 01:54:54;;;;;;;1.77;1.00;;;10.10;99.90;;;;;;5057077;28;20051;-71
2023/04/01 01:57:25;;;;;;;2.65;1.40;;;10.10;99.90;;;;;;5056976;28;20397;-71
2023/04/01 01:59:54;;;;;;;2.60;1.30;;;10.20;99.90;;;;;;5057398;28;20033;-71
2023/04/01 02:02:21;;;;;;;1.92;1.38;;;10.20;99.90;;;;;;5056923;28;20123;-71
2023/04/01 02:04:47;;;;;;;2.22;1.60;;;10.20;99.90;;;;;;5057166;28;20048;-71
2023/04/01 02:07:19;;;;;;;3.40;2.03;;;10.20;99.90;;;;;;5056743;28;20500;-71
2023/04/01 02:09:45;;;;;;;5.60;2.28;;;10.20;99.90;;;;;;5056836;28;20165;-71
2023/04/01 02:12:15;;;;;;;2.70;1.90;;;10.20;99.90;;;;;;5056615;28;20127;-71
2023/04/01 02:15:06;;;;;;;3.70;2.40;;;10.20;99.90;;;;;;5056712;28;20036;-71
2023/04/01 02:17:34;;;;;;;2.30;2.10;;;10.30;99.90;;;;;;5056474;28;20550;-71
2023/04/01 02:20:08;;;;;;;3.33;2.55;;;10.20;99.90;;;;;;5040571;28;20051;-71
2023/04/01 02:22:38;;;;;;;4.88;2.72;;;10.20;99.90;;;;;;5040025;28;20051;-71
2023/04/01 02:25:13;;;;;;;3.67;2.80;;;10.20;99.90;;;;;;5039813;28;20044;-71
2023/04/01 02:27:39;;;;;;;4.03;2.60;;;10.30;99.90;;;;;;5056690;28;20064;-71
2023/04/01 02:30:07;;;;;;;5.85;2.90;;;10.30;99.90;;;;;;5039769;28;20044;-72
2023/04/01 02:32:34;;;;;;;5.90;3.42;;;10.20;99.90;;;;;;5056234;28;20045;-71
2023/04/01 02:35:03;;;;;;;3.28;2.80;;;10.20;99.90;;;;;;5039623;28;20045;-71
2023/04/01 02:37:28;;;;;;;3.58;3.00;;;10.30;99.90;;;;;;5056119;28;20045;-71
2023/04/01 02:39:58;;;;;;;4.40;2.92;;;10.30;99.90;;;;;;5056107;28;20055;-71
2023/04/01 02:42:24;;;;;;;3.95;3.20;;;10.20;99.90;;;;;;5056149;28;20048;-71
2023/04/01 02:44:49;;;;;;;4.40;3.20;;;10.30;99.90;;;;;;5056102;28;20047;-71
2023/04/01 02:47:15;;;;;;;5.20;3.45;;;10.30;99.90;;;;;;5039673;28;20127;-71
2023/04/01 02:49:41;;;;;;;4.18;3.08;;;10.40;99.90;;;;;;5056004;28;20067;-71
2023/04/01 02:52:07;;;;;;;5.10;4.00;;;10.30;99.90;;;;;;5055828;28;20520;-71
2023/04/01 02:54:32;;;;;;;6.22;3.53;;;10.30;99.90;;;;;;5056191;28;20040;-71
2023/04/01 02:56:58;;;;;;;5.18;3.97;;;10.30;99.90;;;;;;5055832;28;20090;-71
2023/04/01 02:59:23;;;;;;;7.30;3.70;;;10.30;99.90;;;;;;5055515;28;20416;-71
2023/04/01 03:01:49;;;;;;;4.50;3.90;;;10.40;99.90;;;;;;5056020;28;20515;-71
2023/04/01 03:04:15;;;;;;;6.35;3.90;;;10.30;99.90;;;;;;5055751;28;20047;-72
2023/04/01 03:06:40;;;;;;;4.82;4.25;;;10.30;99.90;;;;;;5039007;28;20036;-72
2023/04/01 03:09:06;;;;;;;4.68;4.13;;;10.30;99.90;;;;;;5055650;28;20041;-72
2023/04/01 03:11:31;;;;;;;5.53;3.80;;;10.40;99.90;;;;;;5055729;28;20037;-72
2023/04/01 03:13:57;;;;;;;5.70;4.40;;;10.30;99.90;;;;;;5055540;28;20037;-72
2023/04/01 03:16:22;;;;;;;7.22;4.95;;;10.30;99.90;;;;;;5055567;28;20044;-71
2023/04/01 03:18:50;;;;;;;5.63;4.32;;;10.40;99.90;;;;;;5055460;28;20068;-72
2023/04/01 03:21:21;;;;;;;6.43;4.35;;;10.30;99.90;;;;;;5055434;28;20040;-71
2023/04/01 03:23:47;;;;;;;7.65;5.40;;;10.40;99.90;;;;;;5055632;28;20036;-71
2023/04/01 03:26:13;;;;;;;7.13;4.43;;;10.30;99.90;;;;;;5055294;28;20090;-71
2023/04/01 03:28:39;;;;;;;8.57;4.88;;;10.40;99.90;;;;;;5055315;28;20032;-71
2023/04/01 03:31:05;;;;;;;5.38;4.40;;;10.30;99.90;;;;;;5055168;28;20098;-71
2023/04/01 03:33:31;;;;;;;5.90;4.63;;;10.40;99.90;;;;;;5055527;28;20040;-71
2023/04/01 03:35:57;;;;;;;5.97;4.43;;;10.40;99.90;;;;;;5055206;28;20051;-71
2023/04/01 03:38:23;;;;;;;6.32;4.97;;;10.40;99.90;;;;;;5055249;28;20036;-71
2023/04/01 03:40:49;;;;;;;5.95;5.22;;;10.40;99.90;;;;;;5055253;28;20040;-71
2023/04/01 03:43:16;;;;;;;7.20;5.30;;;10.40;99.90;;;;;;5055070;28;20032;-71
2023/04/01 03:45:50;;;;;;;6.60;4.90;;;10.40;99.90;;;;;;5055349;28;20442;-71
2023/04/01 03:48:15;;;;;;;5.22;4.28;;;10.40;99.90;;;;;;5055133;28;20488;-71
2023/04/01 03:50:42;;;;;;;7.28;4.55;;;10.40;99.90;;;;;;5055042;28;20043;-71
2023/04/01 03:53:07;;;;;;;7.53;5.15;;;10.40;99.90;;;;;;5054939;28;20044;-71
2023/04/01 03:55:35;;;;;;;7.00;5.57;;;10.30;99.90;;;;;;5038387;28;20033;-71
2023/04/01 03:58:02;;;;;;;5.43;4.35;;;10.30;99.90;;;;;;5055008;28;20051;-71
2023/04/01 04:00:28;;;;;;;7.05;5.20;;;10.40;99.90;;;;;;5054977;28;20059;-71
2023/04/01 04:02:55;;;;;;;5.35;4.65;;;10.40;99.90;;;;;;5054934;28;20216;-71
2023/04/01 04:05:21;;;;;;;6.45;4.85;;;10.40;99.90;;;;;;5054901;28;20040;-71
2023/04/01 04:07:46;;;;;;;7.10;4.47;;;10.40;99.90;;;;;;5054854;28;20040;-71
2023/04/01 04:10:12;;;;;;;7.88;5.55;;;10.40;99.90;;;;;;5055853;28;20033;-71
2023/04/01 04:12:37;;;;;;;6.13;5.47;;;10.30;99.90;;;;;;5058951;28;20566;-71
2023/04/01 04:15:03;;;;;;;6.68;5.00;;;10.40;99.90;;;;;;5059242;28;20124;-71
2023/04/01 04:17:29;;;;;;;7.70;5.57;;;10.30;99.90;;;;;;5058798;28;20424;-71
2023/04/01 04:19:55;;;;;;;5.72;5.15;;;10.30;99.90;;;;;;5058859;28;20070;-71
2023/04/01 04:22:20;;;;;;;5.07;4.57;;;10.30;99.90;;;;;;5059040;28;20040;-71
2023/04/01 04:24:46;;;;;;;6.70;5.15;;;10.30;99.90;;;;;;5058794;28;20040;-71
2023/04/01 04:27:11;;;;;;;6.25;5.20;;;10.30;99.90;;;;;;5058945;28;20040;-71
2023/04/01 04:29:37;;;;;;;6.60;5.25;;;10.30;99.90;;;;;;5058729;28;20056;-71
2023/04/01 04:32:02;;;;;;;7.38;5.70;;;10.30;99.90;;;;;;5058707;28;20040;-71
2023/04/01 04:34:28;;;;;;;6.97;5.68;;;10.30;99.90;;;;;;5058580;28;20511;-71
2023/04/01 04:36:54;;;;;;;5.82;5.22;;;10.30;99.90;;;;;;5058445;28;20131;-71
2023/04/01 04:39:19;;;;;;;7.32;5.57;;;10.30;99.90;;;;;;5041865;28;20044;-72
2023/04/01 04:41:45;;;;;;;8.10;5.80;;;10.30;99.90;;;;;;5058461;28;20041;-71
2023/04/01 04:44:11;;;;;;;6.38;5.72;;;10.30;99.90;;;;;;5058626;28;20076;-71
2023/04/01 04:46:39;;;;;;;7.72;5.38;;;10.30;99.90;;;;;;5058316;28;20056;-71
2023/04/01 04:49:05;;;;;;;6.97;5.75;;;10.30;99.90;;;;;;5058317;28;20478;-71
2023/04/01 04:51:33;;;;;;;6.53;5.45;;;10.30;99.90;;;;;;5058365;28;20032;-71
2023/04/01 04:54:00;;;;;;;9.75;5.38;;;10.30;99.90;;;;;;5041955;28;20039;-72
2023/04/01 04:56:26;;;;;;;6.95;5.00;;;10.30;99.90;;;;;;5058103;28;20063;-72
2023/04/01 04:58:52;;;;;;;6.38;5.15;;;10.30;99.90;;;;;;5058371;28;20032;-72
2023/04/01 05:01:18;;;;;;;6.93;4.85;;;10.20;99.90;;;;;;5058058;28;20551;-72
2023/04/01 05:03:44;;;;;;;5.63;5.00;;;10.30;99.90;;;;;;5041712;28;20105;-72
2023/04/01 05:06:11;;;;;;;6.20;5.40;;;10.30;99.90;;;;;;5057913;28;20501;-72
2023/04/01 05:08:39;;;;;;;7.32;5.13;;;10.30;99.90;;;;;;5057963;28;20051;-72
2023/04/01 05:11:09;;;;;;;6.57;5.03;;;10.30;99.90;;;;;;5058032;28;20121;-72
2023/04/01 05:13:36;;;;;;;9.55;5.57;;;10.20;99.90;;;;;;5041167;28;20540;-72
2023/04/01 05:16:02;;;;;;;10.07;5.28;;;10.30;99.90;;;;;;5057537;28;20603;-72
2023/04/01 05:18:27;;;;;;;8.05;5.80;;;10.30;99.90;;;;;;5057829;28;20166;-71
2023/04/01 05:20:54;;;;;;;7.22;5.60;;;10.30;99.90;;;;;;5041091;28;20068;-71
2023/04/01 05:23:21;;;;;;;6.88;5.55;;;10.20;99.90;;;;;;5057291;28;20123;-72
2023/04/01 05:25:53;;;;;;;6.45;5.45;;;10.20;99.90;;;;;;5040954;28;20114;-72
2023/04/01 05:28:20;;;;;;;8.00;6.20;;;10.20;99.90;;;;;;5057624;28;20044;-72
2023/04/01 05:30:46;;;;;;;7.10;6.28;;;10.20;99.90;;;;;;5057533;28;20062;-72
2023/04/01 05:33:12;;;;;;;8.07;6.35;;;10.20;99.90;;;;;;5040726;28;20044;-72
2023/04/01 05:35:39;;;;;;;8.85;7.22;;;10.30;99.90;;;;;;5057462;28;20041;-72
2023/04/01 05:38:05;;;;;;;9.18;7.15;;;10.20;99.90;;;;;;5040773;28;20404;-72
2023/04/01 05:40:31;;;;;;;8.82;7.57;;;10.30;99.90;;;;;;5057330;28;20408;-72
2023/04/01 05:42:58;;;;;;;11.32;7.75;;;10.30;99.90;;;;;;5057363;28;20040;-72
2023/04/01 05:45:24;;;;;;;8.65;7.28;;;10.30;99.90;;;;;;5057519;28;20041;-71
2023/04/01 05:47:50;;;;;;;7.82;6.95;;;10.20;99.90;;;;;;5057565;28;20408;-71
2023/04/01 05:50:16;;;;;;;9.88;8.32;;;10.20;99.90;;;;;;5057267;28;20501;-71
2023/04/01 05:52:42;;;;;;;9.27;7.70;;;10.20;99.90;;;;;;5057100;28;20046;-71
2023/04/01 05:55:08;;;;;;;8.20;7.38;;;10.20;99.90;;;;;;5040489;28;20044;-71
2023/04/01 05:57:33;;;;;;;8.35;7.50;;;10.30;99.90;;;;;;5057247;28;20033;-71
2023/04/01 05:59:59;;;;;;;8.30;7.45;;;10.30;99.90;;;;;;5057269;28;20503;-71
2023/04/01 06:02:25;;;;;;;8.45;7.55;;;10.30;99.90;;;;;;5057019;28;20455;-71
2023/04/01 06:05:02;;;;;;;8.50;7.57;;;10.30;99.90;;;;;;5056985;28;20045;-71
2023/04/01 06:07:28;;;;;;;9.52;7.80;;;10.30;99.90;;;;;;5056826;28;20036;-71
2023/04/01 06:09:54;;;;;;;8.80;7.78;;;10.30;99.90;;;;;;5056854;28;20056;-71
2023/04/01 06:12:34;;;;;;;9.05;8.15;;;10.30;99.90;;;;;;5056629;28;20040;-71
2023/04/01 06:15:19;;;;;;;8.77;7.85;;;10.30;99.90;;;;;;5056959;28;20033;-72
2023/04/01 06:18:11;;;;;;;8.52;7.72;;;10.30;99.90;;;;;;5056545;28;20048;-71
2023/04/01 06:20:42;;;;;;;8.02;7.22;;;10.30;99.90;;;;;;5056635;28;20093;-71
2023/04/01 06:23:33;;;;;;;8.27;7.47;;;10.40;99.90;;;;;;5056616;28;20051;-71
2023/04/01 06:26:08;;;;;;;6.32;5.72;;;10.40;99.90;;;;;;5056798;28;20107;-71
2023/04/01 06:29:06;;;;;;;8.07;7.03;;;10.30;99.90;;;;;;5056795;28;20044;-71
2023/04/01 06:32:13;;;;;;;6.70;6.00;;;10.40;99.90;;;;;;5056397;28;20475;-71
2023/04/01 06:35:00;;;;;;;7.63;6.03;;;10.30;99.90;;;;;;5055408;28;20045;-71
2023/04/01 06:37:37;;;;;;;6.13;5.47;;;10.30;99.90;;;;;;5039780;28;20037;-71
2023/04/01 06:40:54;;;;;;;7.03;5.43;;;10.40;99.90;;;;;;5056495;28;20037;-71
2023/04/01 06:44:05;;;;;;;6.07;4.90;;;10.40;99.90;;;;;;4977068;28;20038;-72
2023/04/01 06:46:47;;;;;;;5.07;4.50;;;10.30;99.90;;;;;;4976471;28;20045;-72
2023/04/01 06:49:32;;;;;;;6.03;4.53;;;10.40;99.90;;;;;;4976720;28;20038;-72
2023/04/01 06:52:23;;;;;;;6.68;4.75;;;10.40;99.90;;;;;;4976491;28;20054;-72
2023/04/01 06:54:55;;;;;;;5.97;4.43;;;10.40;99.90;;;;;;4960195;28;20042;-72
2023/04/01 06:57:39;;;;;;;7.35;4.63;;;10.40;99.90;;;;;;4976610;28;20050;-72
2023/04/01 07:00:27;;;;;;;7.05;4.18;;;10.40;99.90;;;;;;4976318;28;20048;-72
2023/04/01 07:03:26;;;;;;;5.57;4.90;;;10.40;99.90;;;;;;4960087;28;20053;-72
2023/04/01 07:05:53;;;;;;;4.90;4.45;;;10.50;99.90;;;;;;4960045;28;20077;-72
2023/04/01 07:08:25;;;;;;;8.57;5.65;;;10.40;99.90;;;;;;4976358;28;20420;-72
2023/04/01 07:10:58;;;;;;;8.00;5.68;;;10.40;99.90;;;;;;4976170;28;20054;-72
2023/04/01 07:13:40;;;;;;;6.30;5.45;;;10.40;99.90;;;;;;4976073;28;20057;-72
2023/04/01 07:16:12;;;;;;;7.28;6.47;;;10.40;99.90;;;;;;4985036;28;20038;-72
2023/04/01 07:18:54;;;;;;;8.95;6.82;;;10.40;99.90;;;;;;5055597;28;20043;-72
2023/04/01 07:21:29;;;;;;;9.45;7.70;;;10.40;99.90;;;;;;5039169;28;20048;-72
2023/04/01 07:24:00;;;;;;;12.20;9.00;;;10.40;99.90;;;;;;5055768;28;20086;-71
2023/04/01 07:26:26;;;;;;;10.15;8.43;;;10.40;99.90;;;;;;5038907;28;20036;-71
2023/04/01 07:28:53;;;;;;;9.57;8.57;;;10.40;99.90;;;;;;5055801;28;20051;-71
2023/04/01 07:31:30;;;;;;;9.70;8.48;;;10.40;99.90;;;;;;5038821;28;20040;-71
2023/04/01 07:34:24;;;;;;;9.13;8.23;;;10.40;99.90;;;;;;5039161;28;20063;-72
2023/04/01 07:37:14;;;;;;;9.32;8.43;;;10.40;99.90;;;;;;5055187;28;20086;-72
2023/04/01 07:39:48;;;;;;;10.05;9.05;;;10.50;99.90;;;;;;5055240;28;20041;-72
2023/04/01 07:42:54;;;;;;;9.18;8.27;;;10.40;99.90;;;;;;5038783;28;20097;-72
2023/04/01 07:45:41;;;;;;;10.50;9.40;;;10.60;99.90;;;;;;5038235;28;20040;-72
2023/04/01 07:48:18;;;;;;;10.88;9.73;;;10.60;99.90;;;;;;5055126;28;20041;-72
2023/04/01 07:51:03;;;;;;;10.45;9.45;;;10.70;99.90;;;;;;5038579;28;20123;-71
2023/04/01 07:53:36;;;;;;;10.73;9.70;;;10.70;99.90;;;;;;5055335;28;20066;-71
2023/04/01 07:56:15;;;;;;;11.43;10.23;;;10.80;99.90;;;;;;5038608;28;20032;-71
2023/04/01 07:58:50;;;;;;;11.90;10.38;;;10.90;99.90;;;;;;5038475;28;20492;-71
2023/04/01 08:01:49;;;;;;;11.50;10.30;;;10.90;99.90;;;;;;5055040;28;20051;-71
2023/04/01 08:04:18;;;;;;;11.00;9.90;;;11.00;99.90;;;;;;5038423;28;20041;-71
2023/04/01 08:06:53;;;;;;;11.50;10.40;;;11.10;99.90;;;;;;5055999;28;20132;-71
2023/04/01 08:09:26;;;;;;;12.25;9.55;;;11.20;99.90;;;;;;5054981;28;20044;-71
2023/04/01 08:12:05;;;;;;;10.77;9.77;;;11.10;99.90;;;;;;5055052;28;20037;-71
2023/04/01 08:14:57;;;;;;;10.80;9.80;;;11.20;99.90;;;;;;5054962;28;20090;-71
2023/04/01 08:17:38;;;;;;;11.23;10.13;;;11.20;99.90;;;;;;5054071;28;20048;-71
2023/04/01 08:20:10;;;;;;;10.25;9.20;;;11.30;99.90;;;;;;5038279;28;20094;-71
2023/04/01 08:22:50;;;;;;;9.13;8.23;;;11.30;99.90;;;;;;5054942;28;20044;-71
2023/04/01 08:25:21;;;;;;;9.38;8.38;;;11.40;99.90;;;;;;5038144;28;20041;-71
2023/04/01 08:28:02;;;;;;;10.20;9.05;;;11.40;99.90;;;;;;5054782;28;20080;-71
2023/04/01 08:30:40;;;;;;;10.70;9.60;;;11.50;99.90;;;;;;5054784;28;20093;-71
2023/04/01 08:33:25;;;;;;;9.65;8.75;;;11.50;99.90;;;;;;5054731;28;20040;-71
2023/04/01 08:36:10;;;;;;;11.27;9.60;;;11.50;99.90;;;;;;5054719;28;20127;-71
2023/04/01 08:39:12;;;;;;;9.50;8.60;;;11.40;99.90;;;;;;5054736;28;20063;-71
2023/04/01 08:42:07;;;;;;;10.20;9.10;;;11.40;99.90;;;;;;4959276;28;20057;-71
2023/04/01 08:44:44;;;;;;;8.18;7.35;;;11.40;99.90;;;;;;4975101;28;20418;-71
2023/04/01 08:47:25;;;;;;;6.70;6.07;;;11.30;99.90;;;;;;4975196;28;20050;-71
2023/04/01 08:49:57;;;;;;;7.75;5.75;;;11.50;99.90;;;;;;4975067;28;20125;-71
2023/04/01 08:52:29;;;;;;;7.03;5.87;;;11.50;99.90;;;;;;4975193;28;20057;-71
2023/04/01 08:55:53;;;;;;;6.65;5.97;;;11.40;99.90;;;;;;4974968;28;20050;-71
2023/04/01 08:58:35;;;;;;;5.55;5.05;;;11.50;99.90;;;;;;4935620;29;20051;-71
2023/04/01 09:01:19;;;;;;;6.90;6.00;;;11.50;99.90;;;;;;4921043;29;20040;-71
2023/04/01 09:03:59;;;;;;;6.60;6.00;;;11.60;99.90;;;;;;4968925;28;20078;-71
2023/04/01 09:06:45;;;;;;;7.60;6.88;;;11.40;99.90;;;;;;4978513;28;20101;-71
2023/04/01 09:09:37;;;;;;;7.00;6.28;;;11.40;99.90;;;;;;4978434;28;20128;-71
2023/04/01 09:12:30;;;;;;;8.70;7.22;;;11.30;99.90;;;;;;4978373;28;20046;-71
2023/04/01 09:15:13;;;;;;;8.70;6.35;;;11.30;99.90;;;;;;4978421;28;20049;-70
2023/04/01 09:17:58;;;;;;;8.30;7.25;;;11.50;99.90;;;;;;5033100;28;20509;-71
2023/04/01 09:21:01;;;;;;;7.75;6.90;;;11.50;99.90;;;;;;5058143;28;20085;-71
2023/04/01 09:23:48;;;;;;;8.85;7.72;;;11.60;99.90;;;;;;5041142;28;20051;-70
2023/04/01 09:26:31;;;;;;;8.30;7.30;;;11.60;99.90;;;;;;5041247;28;20511;-71
2023/04/01 09:29:35;;;;;;;9.50;8.50;;;11.60;99.90;;;;;;5057698;28;20127;-71
2023/04/01 09:32:34;;;;;;;8.88;7.97;;;11.60;99.90;;;;;;5057550;28;20047;-71
2023/04/01 09:35:30;;;;;;;10.10;8.30;;;11.70;99.90;;;;;;5057819;28;20438;-70
2023/04/01 09:38:21;;;;;;;10.85;9.20;;;11.60;99.90;;;;;;5040847;28;20047;-70
2023/04/01 09:40:53;;;;;;;10.13;9.13;;;11.60;99.90;;;;;;5057465;28;20040;-70
2023/04/01 09:43:29;;;;;;;11.65;9.93;;;11.60;99.90;;;;;;5057425;28;20036;-70
2023/04/01 09:46:28;;;;;;;11.38;10.00;;;11.60;99.90;;;;;;5057306;28;20040;-70
2023/04/01 09:49:04;;;;;;;11.18;10.13;;;11.60;99.90;;;;;;5057311;28;20412;-71
2023/04/01 09:52:03;;;;;;;11.25;10.15;;;11.50;99.90;;;;;;5057234;28;20036;-70
2023/04/01 09:54:50;;;;;;;11.77;10.65;;;11.60;99.90;;;;;;5057246;28;20044;-70
2023/04/01 09:57:24;;;;;;;10.93;9.82;;;11.50;99.90;;;;;;5057093;28;20044;-70
2023/04/01 10:00:27;;;;;;;10.57;9.55;;;11.40;99.90;;;;;;5057111;28;20044;-71
2023/04/01 10:03:15;;;;;;;11.18;10.07;;;11.50;99.90;;;;;;5057015;28;20521;-70
2023/04/01 10:06:14;;;;;;;10.90;9.77;;;11.50;99.90;;;;;;5056982;28;20043;-70
2023/04/01 10:08:51;;;;;;;11.70;10.15;;;11.40;99.90;;;;;;5057067;28;20044;-70
2023/04/01 10:11:36;;;;;;;11.48;9.75;;;11.50;99.90;;;;;;5056847;28;20046;-70
2023/04/01 10:14:19;;;;;;;11.60;10.50;;;11.60;99.90;;;;;;5056722;28;20385;-70
2023/04/01 10:16:54;;;;;;;10.98;9.98;;;11.50;99.90;;;;;;5056545;28;20545;-71
2023/04/01 10:19:49;;;;;;;12.48;11.20;;;11.60;99.90;;;;;;5056800;28;20040;-71
2023/04/01 10:22:35;;;;;;;12.20;11.00;;;11.60;99.90;;;;;;5056988;28;20079;-71
2023/04/01 10:25:17;;;;;;;11.38;10.35;;;11.60;99.90;;;;;;5056883;28;20040;-71
2023/04/01 10:27:46;;;;;;;11.80;10.57;;;11.70;99.90;;;;;;5056849;28;20098;-71
2023/04/01 10:30:55;;;;;;;12.48;11.27;;;11.60;99.90;;;;;;5039945;28;20110;-71
2023/04/01 10:33:41;;;;;;;10.15;8.93;;;11.60;99.90;;;;;;5039800;28;20083;-71
2023/04/01 10:36:22;;;;;;;6.55;5.35;;;11.60;99.90;;;;;;5056309;28;20043;-71
2023/04/01 10:39:00;;;;;;;5.60;4.95;;;11.50;99.90;;;;;;5039746;28;20128;-71
2023/04/01 10:41:48;;;;;;;4.85;4.22;;;11.50;99.90;;;;;;5056346;28;20048;-71
2023/04/01 10:44:38;;;;;;;5.88;5.00;;;11.50;99.90;;;;;;5056240;28;20090;-71
2023/04/01 10:47:25;;;;;;;5.45;4.47;;;11.40;99.90;;;;;;5056121;28;20044;-71
2023/04/01 10:50:21;;;;;;;5.15;3.92;;;11.40;99.90;;;;;;5039537;28;20106;-71
2023/04/01 10:53:05;;;;;;;4.63;4.22;;;11.30;99.90;;;;;;5056322;28;20504;-70
2023/04/01 10:55:55;;;;;;;4.50;4.10;;;11.30;99.90;;;;;;5056174;28;20053;-70
2023/04/01 10:58:39;;;;;;;5.47;4.43;;;11.20;99.90;;;;;;5056226;28;20520;-71
2023/04/01 11:01:26;;;;;;;4.90;4.30;;;11.20;99.90;;;;;;5039348;28;20036;-71
2023/04/01 11:04:01;;;;;;;4.90;4.50;;;11.10;99.90;;;;;;5056126;28;20044;-71
2023/04/01 11:06:34;;;;;;;4.88;4.43;;;11.10;99.90;;;;;;5055767;28;20041;-71
2023/04/01 11:09:24;;;;;;;5.75;5.15;;;11.10;99.90;;;;;;5039486;28;20048;-71
2023/04/01 11:12:09;;;;;;;5.28;4.78;;;11.00;99.90;;;;;;5055766;28;20059;-71
2023/04/01 11:14:59;;;;;;;5.05;4.55;;;11.00;99.90;;;;;;5055766;28;20119;-70
2023/04/01 11:17:54;;;;;;;5.63;4.55;;;11.00;99.90;;;;;;5055812;28;20036;-71
2023/04/01 11:20:43;;;;;;;6.45;4.53;;;11.10;99.90;;;;;;5026713;28;20048;-70
2023/04/01 11:23:15;;;;;;;5.82;4.57;;;11.00;99.90;;;;;;5039061;28;20070;-70
2023/04/01 11:26:07;;;;;;;5.00;4.50;;;10.90;99.90;;;;;;5055878;28;20044;-71
2023/04/01 11:29:24;;;;;;;4.43;3.80;;;11.00;99.90;;;;;;5055531;28;20036;-71
2023/04/01 11:32:07;;;;;;;4.18;3.78;;;10.90;99.90;;;;;;5044720;28;20523;-70
2023/04/01 11:34:39;;;;;;;4.45;3.92;;;10.90;99.90;;;;;;5056186;28;20040;-71
2023/04/01 11:37:26;;;;;;;3.60;3.00;;;10.80;99.90;;;;;;5038961;28;20087;-70
2023/04/01 11:40:19;;;;;;;3.70;3.20;;;10.80;99.90;;;;;;5055552;28;20048;-70
2023/04/01 11:43:19;;;;;;;4.25;3.20;;;10.80;99.90;;;;;;5038773;28;20055;-70
2023/04/01 11:45:47;;;;;;;3.35;2.30;;;10.70;99.90;;;;;;5055474;28;20147;-70
2023/04/01 11:48:32;;;;;;;3.55;2.70;;;10.70;99.90;;;;;;5055506;28;20051;-70
2023/04/01 11:51:10;;;;;;;4.00;2.78;;;10.60;99.90;;;;;;5055225;28;20047;-71
2023/04/01 11:53:56;;;;;;;3.70;2.60;;;10.60;99.90;;;;;;5055437;28;20105;-71
2023/04/01 11:56:35;;;;;;;3.85;2.78;;;10.60;99.90;;;;;;5014992;28;20040;-71
2023/04/01 11:59:06;;;;;;;4.45;2.75;;;10.60;99.90;;;;;;5055287;28;20037;-70
2023/04/01 12:02:07;;;;;;;3.33;2.40;;;10.60;99.90;;;;;;5055082;28;20051;-70
2023/04/01 12:04:38;;;;;;;3.58;2.83;;;10.50;99.90;;;;;;5055569;28;20131;-70
2023/04/01 12:07:32;;;;;;;4.68;2.85;;;10.50;99.90;;;;;;5038809;28;20044;-71
2023/04/01 12:10:18;;;;;;;3.20;2.80;;;10.50;99.90;;;;;;5055002;28;20044;-71
2023/04/01 12:13:07;;;;;;;2.83;2.53;;;10.60;99.90;;;;;;5054890;28;20048;-71
2023/04/01 12:15:41;;;;;;;2.90;2.35;;;10.60;99.90;;;;;;5054655;28;20041;-70
2023/04/01 12:18:41;;;;;;;3.30;2.60;;;10.50;99.90;;;;;;5038619;28;20099;-70
2023/04/01 12:21:16;;;;;;;3.05;2.60;;;10.50;99.90;;;;;;5055139;28;20127;-70
2023/04/01 12:24:03;;;;;;;3.65;2.65;;;10.60;99.90;;;;;;5038540;28;20048;-70
2023/04/01 12:26:45;;;;;;;3.15;2.63;;;10.60;99.90;;;;;;5054791;28;20098;-72
2023/04/01 12:29:40;;;;;;;2.95;2.60;;;10.50;99.90;;;;;;5038246;28;20044;-72
2023/04/01 12:32:06;;;;;;;3.17;2.60;;;10.50;99.90;;;;;;5055288;28;20501;-70
2023/04/01 12:34:47;;;;;;;3.80;3.22;;;10.50;99.90;;;;;;5058910;28;20044;-70
2023/04/01 12:37:17;;;;;;;3.67;3.30;;;10.50;99.90;;;;;;5058878;28;20040;-70
2023/04/01 12:39:46;;;;;;;4.90;3.60;;;10.50;99.90;;;;;;5058633;28;20382;-69
2023/04/01 12:42:21;;;;;;;4.80;3.50;;;10.50;99.90;;;;;;5058535;28;20497;-70
2023/04/01 12:45:11;;;;;;;3.58;3.28;;;10.50;99.90;;;;;;5058734;28;20047;-70
2023/04/01 12:48:04;;;;;;;3.67;3.38;;;10.40;99.90;;;;;;5058461;28;20037;-70
2023/04/01 12:50:42;;;;;;;4.35;3.40;;;10.50;99.90;;;;;;5041722;28;20454;-70
2023/04/01 12:53:33;;;;;;;3.13;2.80;;;10.40;99.90;;;;;;5058307;28;20123;-70
2023/04/01 12:56:01;;;;;;;3.13;2.40;;;10.40;99.90;;;;;;5058584;28;20119;-70
2023/04/01 12:58:35;;;;;;;3.08;2.78;;;10.40;99.90;;;;;;5058305;28;20116;-70
2023/04/01 13:01:23;;;;;;;3.08;2.42;;;10.40;99.90;;;;;;5058188;28;20123;-70
2023/04/01 13:04:27;;;;;;;3.40;2.70;;;10.40;99.90;;;;;;5058501;28;20109;-70
2023/04/01 13:07:38;;;;;;;2.95;2.30;;;10.40;99.90;;;;;;5058365;28;20117;-70
2023/04/01 13:10:41;;;;;;;2.83;2.42;;;10.30;99.90;;;;;;5011459;28;20055;-70
2023/04/01 13:13:10;;;;;;;2.92;2.50;;;10.30;99.90;;;;;;5057946;28;20381;-70
2023/04/01 13:16:10;;;;;;;3.00;2.70;;;10.20;99.90;;;;;;5057678;28;20193;-70
2023/04/01 13:18:36;;;;;;;3.13;2.83;;;10.20;99.90;;;;;;5057944;28;20080;-70
2023/04/01 13:21:13;;;;;;;3.50;2.80;;;10.10;99.90;;;;;;5057883;28;20089;-70
2023/04/01 13:24:05;;;;;;;3.42;3.05;;;10.20;99.90;;;;;;5057761;28;20032;-70
2023/04/01 13:26:53;;;;;;;4.65;3.40;;;10.10;99.90;;;;;;5057633;28;20101;-70
2023/04/01 13:29:31;;;;;;;3.22;2.85;;;10.00;99.90;;;;;;5057818;28;20052;-70
2023/04/01 13:32:08;;;;;;;3.08;2.78;;;10.10;99.90;;;;;;5057843;28;20098;-69
2023/04/01 13:34:54;;;;;;;2.83;2.08;;;10.10;99.90;;;;;;5057666;28;20115;-69